Time;durP1;ratioP1;P1;durP2;ratioP2;P2;SDS_P1;SDS_P2;PMS_P1;PMS_P2;Temp;Humidity;BMP_temperature;BMP_pressure;BME280_temperature;BME280_humidity;BME280_pressure;Samples;Min_cycle;Max_cycle;Signal;HPM_P1;HPM_P2
2022/07/10 00:01:51;;;;;;;2.95;1.77;;;18.90;76.20;;;;;;5019644;28;20026;-82
2022/07/10 00:04:18;;;;;;;3.35;2.17;;;19.00;76.40;;;;;;5001128;28;20026;-83
2022/07/10 00:06:46;;;;;;;4.88;2.28;;;18.90;76.90;;;;;;5019112;28;20021;-82
2022/07/10 00:09:13;;;;;;;4.03;1.95;;;19.00;76.70;;;;;;5017726;28;20018;-82
2022/07/10 00:11:39;;;;;;;3.65;1.83;;;19.10;76.30;;;;;;5021016;28;20055;-83
2022/07/10 00:14:05;;;;;;;1.98;1.55;;;19.10;76.40;;;;;;5023887;28;20061;-83
2022/07/10 00:16:30;;;;;;;4.20;1.75;;;19.00;76.60;;;;;;5023931;28;20018;-82
2022/07/10 00:18:56;;;;;;;3.38;2.08;;;18.90;76.90;;;;;;5004217;28;20022;-82
2022/07/10 00:21:22;;;;;;;4.68;1.90;;;19.00;77.40;;;;;;5022321;28;20078;-82
2022/07/10 00:23:47;;;;;;;3.28;2.03;;;19.00;77.10;;;;;;5012453;28;20026;-82
2022/07/10 00:26:13;;;;;;;5.32;2.05;;;19.00;77.50;;;;;;5020673;28;20146;-83
2022/07/10 00:28:39;;;;;;;3.05;1.95;;;18.90;78.20;;;;;;5020773;28;20029;-82
2022/07/10 00:31:05;;;;;;;3.85;2.35;;;18.90;79.40;;;;;;5010408;28;20038;-79
2022/07/10 00:33:32;;;;;;;4.18;2.70;;;18.80;80.00;;;;;;5016562;28;20078;-79
2022/07/10 00:35:58;;;;;;;2.40;2.20;;;18.70;81.20;;;;;;5016821;28;20075;-78
2022/07/10 00:38:24;;;;;;;4.28;2.58;;;18.60;82.70;;;;;;5016436;28;20014;-77
2022/07/10 00:40:50;;;;;;;4.18;2.83;;;18.40;85.30;;;;;;5005186;28;20033;-81
2022/07/10 00:43:16;;;;;;;4.70;2.95;;;18.00;90.40;;;;;;5022394;28;20060;-82
2022/07/10 00:45:42;;;;;;;3.38;3.10;;;17.60;91.90;;;;;;5022159;28;20030;-81
2022/07/10 00:48:09;;;;;;;3.15;2.92;;;17.30;93.10;;;;;;5024553;28;20061;-81
2022/07/10 00:50:35;;;;;;;4.85;3.70;;;17.00;94.90;;;;;;5001689;28;20114;-83
2022/07/10 00:53:04;;;;;;;6.82;3.00;;;16.80;96.70;;;;;;5011720;28;20022;-82
2022/07/10 00:55:32;;;;;;;5.22;3.90;;;16.70;97.70;;;;;;5018901;28;20458;-82
2022/07/10 00:57:59;;;;;;;6.50;3.97;;;16.60;98.70;;;;;;5018975;28;20069;-81
2022/07/10 01:00:26;;;;;;;4.22;3.83;;;16.50;99.90;;;;;;5017631;28;20061;-83
2022/07/10 01:02:52;;;;;;;3.92;3.53;;;16.40;99.90;;;;;;5000100;28;20337;-82
2022/07/10 01:05:18;;;;;;;6.70;4.60;;;16.30;99.90;;;;;;5001811;28;20076;-81
2022/07/10 01:07:44;;;;;;;3.90;3.60;;;16.30;99.90;;;;;;4984625;28;20503;-82
2022/07/10 01:10:10;;;;;;;4.53;3.70;;;16.30;99.90;;;;;;5005073;28;20049;-82
2022/07/10 01:12:37;;;;;;;4.57;3.95;;;16.30;99.90;;;;;;5031676;28;20030;-80
2022/07/10 01:15:04;;;;;;;3.58;3.30;;;16.30;99.90;;;;;;4996721;28;20036;-80
2022/07/10 01:17:30;;;;;;;4.55;4.15;;;16.30;99.90;;;;;;5030555;28;20056;-84
2022/07/10 01:19:56;;;;;;;3.80;3.40;;;16.30;99.90;;;;;;5021733;28;20030;-82
2022/07/10 01:22:22;;;;;;;5.22;3.83;;;16.40;99.90;;;;;;5005647;28;20022;-83
2022/07/10 01:24:47;;;;;;;5.07;3.30;;;16.50;99.90;;;;;;5028964;28;20041;-81
2022/07/10 01:27:13;;;;;;;3.65;3.35;;;16.50;99.90;;;;;;5012605;28;20399;-81
2022/07/10 01:29:39;;;;;;;11.60;4.35;;;16.40;99.90;;;;;;5028971;28;20489;-81
2022/07/10 01:32:06;;;;;;;7.28;3.38;;;16.40;99.90;;;;;;5013334;28;20038;-82
2022/07/10 01:34:32;;;;;;;4.43;3.75;;;16.40;99.90;;;;;;4992751;28;20050;-81
2022/07/10 01:36:57;;;;;;;5.38;4.22;;;16.30;99.90;;;;;;5009371;28;20022;-83
2022/07/10 01:39:23;;;;;;;4.10;3.67;;;16.20;99.90;;;;;;4992387;28;20030;-81
2022/07/10 01:41:49;;;;;;;4.50;3.42;;;16.10;99.90;;;;;;5024843;28;20073;-82
2022/07/10 01:44:15;;;;;;;4.47;3.67;;;16.20;99.90;;;;;;5027645;28;20029;-82
2022/07/10 01:46:45;;;;;;;5.75;4.03;;;16.20;99.90;;;;;;5029699;28;20093;-83
2022/07/10 01:49:13;;;;;;;5.38;4.88;;;16.10;99.90;;;;;;5013610;28;20054;-82
2022/07/10 01:51:39;;;;;;;4.82;4.40;;;16.20;99.90;;;;;;5028148;28;20133;-83
2022/07/10 01:54:05;;;;;;;3.88;3.58;;;16.10;99.90;;;;;;5017531;28;20037;-83
2022/07/10 01:56:31;;;;;;;3.58;3.33;;;16.20;99.90;;;;;;5031601;28;20037;-82
2022/07/10 01:58:57;;;;;;;3.90;3.50;;;16.20;99.90;;;;;;5019260;28;20528;-83
2022/07/10 02:01:22;;;;;;;2.90;2.70;;;16.20;99.90;;;;;;5033110;28;20030;-80
2022/07/10 02:06:32;;;;;;;4.80;3.30;;;16.10;99.90;;;;;;5034791;28;20020;-81
2022/07/10 02:08:58;;;;;;;3.53;2.75;;;16.10;99.90;;;;;;5036403;28;20057;-80
2022/07/10 02:11:24;;;;;;;3.67;3.10;;;16.00;99.90;;;;;;5014044;28;20030;-83
2022/07/10 02:13:50;;;;;;;3.17;2.97;;;16.10;99.90;;;;;;5032466;28;20049;-82
2022/07/10 02:16:16;;;;;;;3.10;2.90;;;16.10;99.90;;;;;;5011763;28;20030;-81
2022/07/10 02:18:42;;;;;;;3.92;2.78;;;16.10;99.90;;;;;;5027542;28;20026;-83
2022/07/10 02:21:08;;;;;;;3.40;3.08;;;16.10;99.90;;;;;;5028963;28;20037;-82
2022/07/10 02:23:35;;;;;;;3.72;3.28;;;16.20;99.90;;;;;;5020764;28;20080;-82
2022/07/10 02:26:01;;;;;;;3.58;3.28;;;16.20;99.90;;;;;;5028650;28;20082;-82
2022/07/10 02:28:27;;;;;;;5.18;3.67;;;16.20;99.90;;;;;;5028814;28;20018;-82
2022/07/10 02:30:53;;;;;;;3.80;3.20;;;16.20;99.90;;;;;;5027274;28;20025;-83
2022/07/10 02:33:19;;;;;;;3.40;3.20;;;16.20;99.90;;;;;;5000702;28;20034;-82
2022/07/10 02:35:45;;;;;;;3.38;3.08;;;16.20;99.90;;;;;;5011486;28;20033;-82
2022/07/10 02:38:10;;;;;;;5.10;3.00;;;16.10;99.90;;;;;;4992842;28;20053;-81
2022/07/10 02:40:36;;;;;;;5.60;2.95;;;16.10;99.90;;;;;;5010172;28;20057;-83
2022/07/10 02:43:02;;;;;;;4.63;3.13;;;16.00;99.90;;;;;;5009783;28;20035;-82
2022/07/10 02:45:28;;;;;;;3.22;2.85;;;15.90;99.90;;;;;;5009638;28;20141;-82
2022/07/10 02:47:53;;;;;;;5.72;2.83;;;16.00;99.90;;;;;;4992463;28;20036;-84
2022/07/10 02:50:19;;;;;;;4.78;4.00;;;15.90;99.90;;;;;;5010615;28;20085;-82
2022/07/10 02:52:45;;;;;;;3.28;2.97;;;15.90;99.90;;;;;;5014300;28;20029;-82
2022/07/10 02:55:11;;;;;;;3.95;2.97;;;15.90;99.90;;;;;;5029078;28;20026;-83
2022/07/10 02:57:37;;;;;;;3.97;3.55;;;15.90;99.90;;;;;;5030976;28;20041;-82
2022/07/10 03:00:03;;;;;;;4.40;2.70;;;15.90;99.90;;;;;;5029723;28;20026;-82
2022/07/10 03:02:29;;;;;;;2.70;2.50;;;15.90;99.90;;;;;;5035065;28;20036;-79
2022/07/10 03:04:55;;;;;;;4.03;3.70;;;15.90;99.90;;;;;;5021835;28;20102;-80
2022/07/10 03:07:20;;;;;;;4.53;3.15;;;15.90;99.90;;;;;;5017275;28;20026;-80
2022/07/10 03:09:46;;;;;;;3.63;3.30;;;15.90;99.90;;;;;;5017225;28;20023;-80
2022/07/10 03:12:12;;;;;;;4.18;3.25;;;15.90;99.90;;;;;;5017483;28;20014;-79
2022/07/10 03:14:38;;;;;;;6.35;5.15;;;15.90;99.90;;;;;;5017565;28;20026;-81
2022/07/10 03:17:04;;;;;;;3.42;3.13;;;15.80;99.90;;;;;;5017582;28;20038;-78
2022/07/10 03:19:29;;;;;;;3.90;3.30;;;15.80;99.90;;;;;;5017581;28;20022;-80
2022/07/10 03:21:55;;;;;;;3.58;3.22;;;15.80;99.90;;;;;;5022330;28;20057;-80
2022/07/10 03:24:21;;;;;;;3.50;3.20;;;15.80;99.90;;;;;;5026755;28;20030;-82
2022/07/10 03:26:47;;;;;;;4.43;3.40;;;15.70;99.90;;;;;;5024905;28;20030;-82
2022/07/10 03:29:12;;;;;;;4.22;3.85;;;15.70;99.90;;;;;;5012176;28;20081;-84
2022/07/10 03:31:38;;;;;;;5.53;4.25;;;15.70;99.90;;;;;;5012290;28;20072;-82
2022/07/10 03:34:04;;;;;;;4.43;4.03;;;15.70;99.90;;;;;;5028627;28;20029;-82
2022/07/10 03:36:30;;;;;;;4.32;3.70;;;15.60;99.90;;;;;;5030800;28;20033;-83
2022/07/10 03:38:56;;;;;;;3.53;3.22;;;15.60;99.90;;;;;;5013284;28;20030;-82
2022/07/10 03:41:22;;;;;;;7.53;4.68;;;15.50;99.90;;;;;;5012290;28;20056;-83
2022/07/10 03:43:47;;;;;;;6.38;4.38;;;15.50;99.90;;;;;;5010228;28;20057;-82
2022/07/10 03:46:13;;;;;;;4.18;3.75;;;15.50;99.90;;;;;;5028236;28;20022;-84
2022/07/10 03:48:41;;;;;;;3.65;3.30;;;15.50;99.90;;;;;;5046123;28;20056;-83
2022/07/10 03:51:06;;;;;;;3.92;3.60;;;15.50;99.90;;;;;;5041971;28;20029;-83
2022/07/10 03:53:32;;;;;;;4.55;4.13;;;15.50;99.90;;;;;;5027134;28;20026;-82
2022/07/10 03:56:00;;;;;;;4.60;4.20;;;15.50;99.90;;;;;;5023536;28;20042;-82
2022/07/10 03:58:26;;;;;;;5.68;4.43;;;15.50;99.90;;;;;;5007000;28;20106;-83
2022/07/10 04:00:52;;;;;;;6.35;4.30;;;15.60;99.90;;;;;;5024859;28;20052;-84
2022/07/10 04:03:18;;;;;;;4.82;4.30;;;15.60;99.90;;;;;;5006098;28;20097;-84
2022/07/10 04:05:44;;;;;;;4.53;4.13;;;15.70;99.90;;;;;;4999218;28;20045;-82
2022/07/10 04:08:10;;;;;;;4.28;3.88;;;15.70;99.90;;;;;;4997710;28;20050;-79
2022/07/10 04:10:36;;;;;;;4.57;3.65;;;15.70;99.90;;;;;;5036902;28;20018;-79
2022/07/10 04:13:02;;;;;;;5.43;4.07;;;15.80;99.90;;;;;;5019649;28;20032;-78
2022/07/10 04:15:29;;;;;;;5.63;3.70;;;15.80;99.90;;;;;;5031774;28;20034;-80
2022/07/10 04:17:55;;;;;;;4.15;3.85;;;15.90;99.90;;;;;;4990563;28;20038;-81
2022/07/10 04:20:21;;;;;;;5.63;3.40;;;16.00;99.90;;;;;;5004887;28;20022;-83
2022/07/10 04:22:47;;;;;;;6.35;4.30;;;16.00;99.90;;;;;;5020288;28;20030;-80
2022/07/10 04:25:13;;;;;;;3.65;3.30;;;16.10;99.90;;;;;;5030111;28;20053;-82
2022/07/10 04:27:39;;;;;;;4.15;3.45;;;16.20;99.90;;;;;;5009216;28;20034;-81
2022/07/10 04:30:06;;;;;;;4.53;4.13;;;16.20;99.90;;;;;;5013111;28;20210;-80
2022/07/10 04:32:32;;;;;;;4.80;3.53;;;16.40;99.90;;;;;;5012134;28;20030;-79
2022/07/10 04:34:58;;;;;;;4.35;3.75;;;16.40;99.90;;;;;;5030765;28;20048;-81
2022/07/10 04:37:24;;;;;;;3.13;2.92;;;16.50;99.90;;;;;;5032094;28;20022;-81
2022/07/10 04:39:50;;;;;;;3.90;3.10;;;16.60;99.90;;;;;;5031709;28;20025;-80
2022/07/10 04:42:16;;;;;;;3.50;3.10;;;16.60;99.90;;;;;;5013358;28;20048;-80
2022/07/10 04:44:41;;;;;;;3.95;3.63;;;16.60;99.90;;;;;;5034023;28;20021;-80
2022/07/10 04:47:07;;;;;;;5.55;3.60;;;16.50;99.90;;;;;;5034009;28;20077;-83
2022/07/10 04:49:33;;;;;;;4.00;3.70;;;16.50;99.90;;;;;;5021896;28;20041;-79
2022/07/10 04:51:59;;;;;;;5.18;3.40;;;16.50;99.90;;;;;;5037240;28;20052;-82
2022/07/10 04:54:25;;;;;;;3.90;2.90;;;16.50;99.90;;;;;;5032831;28;20038;-83
2022/07/10 04:56:52;;;;;;;3.22;2.92;;;16.40;99.90;;;;;;5012813;28;20037;-82
2022/07/10 04:59:18;;;;;;;3.30;3.03;;;16.40;99.90;;;;;;5032896;28;20037;-82
2022/07/10 05:01:44;;;;;;;5.75;3.80;;;16.40;99.90;;;;;;5032526;28;20013;-83
2022/07/10 05:04:10;;;;;;;4.88;4.00;;;16.40;99.90;;;;;;5031482;28;20021;-82
2022/07/10 05:06:36;;;;;;;5.38;3.97;;;16.50;99.90;;;;;;5031732;28;20069;-82
2022/07/10 05:09:02;;;;;;;5.90;3.80;;;16.40;99.90;;;;;;5028438;28;20034;-83
2022/07/10 05:11:28;;;;;;;4.05;3.53;;;16.50;99.90;;;;;;5040287;28;20033;-84
2022/07/10 05:13:55;;;;;;;4.15;3.70;;;16.50;99.90;;;;;;5004983;28;20017;-84
2022/07/10 05:16:23;;;;;;;5.43;4.35;;;16.60;99.90;;;;;;5016141;28;20050;-83
2022/07/10 05:18:48;;;;;;;4.88;4.00;;;16.60;99.90;;;;;;5015910;28;20063;-82
2022/07/10 05:21:15;;;;;;;4.60;4.20;;;16.60;99.90;;;;;;5032008;28;20486;-84
2022/07/10 05:23:41;;;;;;;5.00;4.20;;;16.70;99.90;;;;;;5032678;28;20018;-83
2022/07/10 05:26:06;;;;;;;4.50;3.75;;;16.60;99.90;;;;;;5017316;28;20053;-83
2022/07/10 05:28:33;;;;;;;4.55;4.07;;;16.60;99.90;;;;;;5034258;28;20026;-83
2022/07/10 05:30:58;;;;;;;10.90;4.55;;;16.60;99.90;;;;;;5033341;28;20029;-84
2022/07/10 05:33:28;;;;;;;5.28;4.78;;;16.60;99.90;;;;;;5015879;28;20025;-82
2022/07/10 05:35:55;;;;;;;5.00;4.22;;;16.70;99.90;;;;;;5015488;28;20090;-83
2022/07/10 05:38:21;;;;;;;5.53;3.92;;;16.70;99.90;;;;;;5032945;28;20056;-83
2022/07/10 05:40:47;;;;;;;5.03;4.53;;;16.80;99.90;;;;;;5017112;28;20145;-81
2022/07/10 05:43:12;;;;;;;5.88;4.75;;;16.70;99.90;;;;;;5028473;28;20466;-80
2022/07/10 05:45:40;;;;;;;4.60;4.20;;;16.70;99.90;;;;;;5058584;28;20029;-81
2022/07/10 05:48:06;;;;;;;6.80;5.53;;;16.60;99.90;;;;;;5039458;28;20030;-82
2022/07/10 05:50:32;;;;;;;5.50;5.00;;;16.60;99.90;;;;;;5039047;28;20036;-83
2022/07/10 05:53:00;;;;;;;4.97;4.35;;;16.60;99.90;;;;;;5021945;28;20034;-84
2022/07/10 05:55:27;;;;;;;6.25;4.68;;;16.50;99.90;;;;;;5034493;28;20018;-83
2022/07/10 05:57:54;;;;;;;7.85;4.82;;;16.60;99.90;;;;;;5036346;28;20090;-83
2022/07/10 06:00:22;;;;;;;6.03;5.35;;;16.80;99.90;;;;;;5036444;28;20026;-82
2022/07/10 06:02:48;;;;;;;7.40;5.25;;;16.90;99.90;;;;;;5035108;28;20030;-82
2022/07/10 06:05:14;;;;;;;8.35;5.40;;;16.90;99.90;;;;;;5010042;28;20068;-82
2022/07/10 06:07:39;;;;;;;6.25;5.65;;;16.90;99.70;;;;;;5015970;28;20034;-83
2022/07/10 06:10:06;;;;;;;6.00;4.85;;;17.00;98.60;;;;;;5016183;28;20022;-82
2022/07/10 06:12:32;;;;;;;4.95;4.45;;;17.10;98.50;;;;;;5032480;28;20030;-83
2022/07/10 06:14:58;;;;;;;5.55;5.00;;;17.30;98.60;;;;;;5027927;28;20021;-83
2022/07/10 06:17:23;;;;;;;5.43;4.93;;;17.60;97.60;;;;;;5012673;28;20048;-83
2022/07/10 06:19:49;;;;;;;6.65;4.63;;;17.80;96.20;;;;;;5012694;28;20061;-85
2022/07/10 06:22:30;;;;;;;6.20;3.88;;;17.70;96.10;;;;;;5029631;28;20029;-84
2022/07/10 06:24:56;;;;;;;7.93;6.10;;;17.50;96.70;;;;;;5026822;28;20101;-86
2022/07/10 06:27:22;;;;;;;5.50;4.72;;;17.40;96.90;;;;;;5020566;28;20145;-85
2022/07/10 06:29:48;;;;;;;5.95;5.20;;;17.20;97.20;;;;;;5036103;22;20475;-79
2022/07/10 06:32:14;;;;;;;6.35;5.63;;;17.10;97.30;;;;;;5003058;28;20486;-79
2022/07/10 06:34:39;;;;;;;4.65;4.20;;;17.10;97.20;;;;;;5001160;28;20026;-79
2022/07/10 06:37:06;;;;;;;7.25;5.50;;;17.10;97.80;;;;;;4971143;28;20030;-79
2022/07/10 06:39:36;;;;;;;5.85;5.28;;;17.00;97.70;;;;;;4985782;28;20158;-80
2022/07/10 06:42:03;;;;;;;5.32;4.82;;;16.90;98.20;;;;;;4983474;28;20035;-79
2022/07/10 06:44:29;;;;;;;7.80;5.25;;;16.80;98.40;;;;;;4982167;28;20054;-78
2022/07/10 06:49:40;;;;;;;6.03;5.32;;;16.60;99.50;;;;;;4981108;28;20033;-79
2022/07/10 06:52:06;;;;;;;7.20;5.88;;;16.80;99.80;;;;;;4980991;28;20034;-80
2022/07/10 06:54:32;;;;;;;6.38;5.57;;;17.20;98.20;;;;;;4978541;28;20027;-79
2022/07/10 06:56:58;;;;;;;5.43;4.93;;;17.30;97.60;;;;;;4987303;28;20080;-79
2022/07/10 06:59:27;;;;;;;8.98;6.72;;;17.10;97.80;;;;;;5000534;28;20042;-79
2022/07/10 07:01:52;;;;;;;7.00;6.30;;;16.90;97.90;;;;;;4998318;28;20027;-79
2022/07/10 07:04:20;;;;;;;7.47;5.80;;;16.70;98.50;;;;;;4984136;28;20054;-78
2022/07/10 07:06:46;;;;;;;7.45;5.95;;;16.70;98.50;;;;;;4964499;28;20030;-80
2022/07/10 07:09:12;;;;;;;6.10;5.50;;;16.80;98.50;;;;;;4962374;28;20029;-79
2022/07/10 07:11:38;;;;;;;6.63;5.75;;;17.20;97.90;;;;;;4999633;28;20073;-79
2022/07/10 07:14:04;;;;;;;12.52;6.78;;;17.50;96.70;;;;;;4983222;28;20049;-79
2022/07/10 07:16:42;;;;;;;8.80;5.28;;;17.50;96.50;;;;;;5000531;28;20137;-79
2022/07/10 07:19:17;;;;;;;6.50;5.45;;;17.50;97.00;;;;;;5002060;28;20027;-79
2022/07/10 07:24:28;;;;;;;5.43;4.93;;;17.70;95.50;;;;;;4975808;28;20042;-80
2022/07/10 07:26:54;;;;;;;7.38;4.90;;;17.60;95.00;;;;;;5003578;28;20022;-80
2022/07/10 07:29:20;;;;;;;5.25;4.75;;;17.50;95.50;;;;;;5000562;28;20039;-79
2022/07/10 07:31:45;;;;;;;4.90;4.40;;;17.50;95.90;;;;;;4990863;28;20126;-81
2022/07/10 07:34:11;;;;;;;4.97;4.43;;;17.70;95.80;;;;;;4966278;28;20655;-81
2022/07/10 07:36:37;;;;;;;6.35;4.13;;;17.60;95.10;;;;;;4964464;28;20038;-82
2022/07/10 07:39:04;;;;;;;5.40;4.53;;;17.70;95.40;;;;;;4964528;28;20030;-80
2022/07/10 07:41:29;;;;;;;5.47;4.43;;;17.70;94.90;;;;;;4988467;28;20483;-82
2022/07/10 07:43:55;;;;;;;6.60;4.97;;;17.70;94.80;;;;;;4987811;28;20045;-80
2022/07/10 07:46:21;;;;;;;9.48;4.55;;;17.80;95.00;;;;;;5007729;28;20049;-79
2022/07/10 07:48:47;;;;;;;4.88;4.38;;;18.00;94.70;;;;;;5003145;28;20045;-81
2022/07/10 07:51:13;;;;;;;5.78;4.50;;;18.20;93.70;;;;;;4992718;28;20027;-80
2022/07/10 07:53:39;;;;;;;6.28;3.97;;;18.50;92.70;;;;;;4995805;28;20058;-78
2022/07/10 07:56:05;;;;;;;6.93;4.32;;;18.60;91.70;;;;;;4994620;28;20038;-81
2022/07/10 07:58:31;;;;;;;4.00;3.47;;;18.70;91.70;;;;;;4987705;28;20026;-81
2022/07/10 08:00:58;;;;;;;7.15;4.00;;;18.80;91.60;;;;;;4985674;28;20046;-79
2022/07/10 08:03:24;;;;;;;4.97;3.40;;;18.90;90.60;;;;;;4986437;28;20026;-82
2022/07/10 08:05:50;;;;;;;5.32;3.10;;;19.00;90.80;;;;;;4986869;28;20053;-81
2022/07/10 08:08:15;;;;;;;7.10;3.20;;;19.10;89.50;;;;;;4968859;28;20038;-81
2022/07/10 08:10:42;;;;;;;3.13;2.83;;;19.10;88.50;;;;;;4985545;28;20035;-80
2022/07/10 08:13:07;;;;;;;3.35;2.85;;;19.10;88.90;;;;;;4985174;28;20022;-80
2022/07/10 08:15:34;;;;;;;3.33;2.95;;;19.30;89.00;;;;;;4984419;28;20054;-80
2022/07/10 08:18:00;;;;;;;4.97;2.90;;;19.50;88.30;;;;;;4984610;28;20051;-82
2022/07/10 08:20:27;;;;;;;3.55;2.88;;;19.40;86.90;;;;;;4986476;28;20104;-80
2022/07/10 08:22:53;;;;;;;3.28;2.97;;;19.20;86.90;;;;;;4988638;28;20023;-80
2022/07/10 08:25:20;;;;;;;4.45;2.58;;;19.20;86.70;;;;;;4984721;28;20058;-80
2022/07/10 08:27:46;;;;;;;6.43;3.17;;;19.40;85.50;;;;;;4987815;28;20030;-80
2022/07/10 08:30:12;;;;;;;5.65;2.28;;;19.50;81.00;;;;;;4989493;28;20070;-80
2022/07/10 08:32:38;;;;;;;6.43;2.38;;;19.40;82.20;;;;;;4988988;28;20038;-80
2022/07/10 08:35:05;;;;;;;3.35;1.67;;;19.30;83.00;;;;;;4987860;28;20034;-80
2022/07/10 08:37:41;;;;;;;3.47;2.17;;;19.40;82.40;;;;;;4987808;28;20026;-80
2022/07/10 08:40:12;;;;;;;4.07;2.20;;;19.50;81.00;;;;;;4972065;28;20035;-81
2022/07/10 08:42:38;;;;;;;3.92;2.30;;;19.80;81.30;;;;;;4969714;28;20161;-79
2022/07/10 08:45:05;;;;;;;2.28;2.08;;;19.70;80.90;;;;;;4970910;28;20045;-81
2022/07/10 08:47:35;;;;;;;3.35;1.95;;;19.50;80.60;;;;;;4989966;28;20053;-81
2022/07/10 08:50:01;;;;;;;6.93;2.40;;;19.00;80.70;;;;;;4986737;28;20034;-81
2022/07/10 08:52:29;;;;;;;4.68;2.40;;;18.80;82.20;;;;;;4975583;28;20023;-81
2022/07/10 08:54:56;;;;;;;3.15;1.70;;;18.70;83.30;;;;;;4989967;28;20046;-81
2022/07/10 08:57:24;;;;;;;5.20;1.70;;;19.00;83.00;;;;;;4987581;28;20023;-80
2022/07/10 08:59:49;;;;;;;4.03;1.77;;;19.50;79.60;;;;;;4988169;28;20030;-82
2022/07/10 09:02:15;;;;;;;7.20;1.80;;;19.90;77.20;;;;;;4988381;28;20027;-81
2022/07/10 09:04:41;;;;;;;6.30;1.52;;;20.10;75.80;;;;;;4988078;28;20432;-80
2022/07/10 09:07:07;;;;;;;3.22;2.10;;;20.00;75.90;;;;;;4978174;28;20031;-80
2022/07/10 09:09:52;;;;;;;4.07;1.80;;;19.60;77.10;;;;;;4995573;28;20038;-81
2022/07/10 09:12:18;;;;;;;6.20;2.00;;;19.10;78.80;;;;;;4995937;28;20034;-79
2022/07/10 09:14:44;;;;;;;2.00;1.48;;;18.90;78.60;;;;;;4997165;28;20031;-80
2022/07/10 09:17:10;;;;;;;5.55;1.80;;;19.00;77.80;;;;;;4978522;28;20027;-80
2022/07/10 09:19:35;;;;;;;3.10;1.30;;;19.30;75.90;;;;;;4992799;28;20379;-80
2022/07/10 09:22:06;;;;;;;2.85;1.92;;;19.70;75.10;;;;;;4987042;28;20468;-80
2022/07/10 09:24:50;;;;;;;2.67;1.37;;;20.10;73.50;;;;;;4994828;28;20023;-79
2022/07/10 09:27:16;;;;;;;7.32;2.17;;;20.30;70.80;;;;;;4995991;28;20034;-80
2022/07/10 09:29:57;;;;;;;5.43;1.70;;;20.20;71.10;;;;;;4994826;28;20057;-80
2022/07/10 09:32:24;;;;;;;4.37;1.23;;;20.10;69.70;;;;;;4996378;28;20023;-80
2022/07/10 09:37:39;;;;;;;4.38;1.10;;;20.60;68.70;;;;;;4996262;28;20117;-80
2022/07/10 09:40:07;;;;;;;3.05;1.58;;;21.10;66.70;;;;;;4977818;28;20031;-80
2022/07/10 09:42:36;;;;;;;3.78;1.40;;;21.00;65.30;;;;;;4977908;28;20015;-80
2022/07/10 09:45:14;;;;;;;4.70;3.00;;;20.60;65.60;;;;;;4978374;28;20494;-79
2022/07/10 09:48:02;;;;;;;5.20;2.20;;;20.50;65.80;;;;;;4995388;28;20030;-79
2022/07/10 09:50:36;;;;;;;3.13;1.65;;;20.30;65.40;;;;;;4997827;28;20030;-77
2022/07/10 09:53:03;;;;;;;2.88;1.30;;;20.20;65.30;;;;;;4992945;28;20042;-80
2022/07/10 09:55:35;;;;;;;2.55;1.40;;;20.30;65.00;;;;;;4986873;28;20054;-79
2022/07/10 09:58:06;;;;;;;3.72;1.35;;;20.40;64.40;;;;;;4986430;28;20031;-80
2022/07/10 10:00:51;;;;;;;8.20;2.20;;;20.80;65.60;;;;;;4987352;28;20039;-80
2022/07/10 10:03:20;;;;;;;6.32;2.30;;;21.30;62.60;;;;;;4979680;28;20023;-80
2022/07/10 10:05:53;;;;;;;4.35;1.98;;;21.20;60.10;;;;;;4985711;28;20033;-79
2022/07/10 10:08:23;;;;;;;4.85;1.45;;;21.20;59.80;;;;;;4982854;28;20061;-78
2022/07/10 10:10:50;;;;;;;3.63;1.73;;;21.20;59.40;;;;;;4982890;28;20027;-79
2022/07/10 10:13:21;;;;;;;4.95;1.23;;;21.30;58.40;;;;;;4981298;28;20027;-79
2022/07/10 10:15:49;;;;;;;2.15;1.17;;;21.50;58.50;;;;;;4980080;28;20050;-80
2022/07/10 10:18:25;;;;;;;3.45;1.13;;;21.80;58.10;;;;;;4971835;28;20110;-80
2022/07/10 10:20:53;;;;;;;2.53;1.50;;;21.80;58.00;;;;;;4990772;28;20023;-80
2022/07/10 10:23:20;;;;;;;3.08;1.92;;;21.50;56.50;;;;;;4989674;28;20125;-79
2022/07/10 10:25:47;;;;;;;3.45;1.52;;;21.30;57.40;;;;;;4970018;28;20035;-79
2022/07/10 10:28:15;;;;;;;2.17;1.45;;;21.40;57.70;;;;;;4987732;28;20102;-79
2022/07/10 10:30:45;;;;;;;2.35;1.27;;;21.30;58.50;;;;;;4986038;28;20026;-80
2022/07/10 10:33:34;;;;;;;7.43;1.80;;;21.10;57.90;;;;;;4968266;28;20023;-80
2022/07/10 10:36:00;;;;;;;3.95;1.20;;;21.20;57.90;;;;;;4985153;28;20026;-80
2022/07/10 10:38:51;;;;;;;2.10;1.17;;;21.40;57.70;;;;;;4968356;28;20111;-80
2022/07/10 10:41:27;;;;;;;4.50;1.30;;;21.80;57.40;;;;;;4975855;28;20427;-79
2022/07/10 10:44:08;;;;;;;1.83;1.10;;;21.60;56.80;;;;;;4984061;28;20038;-79
2022/07/10 10:46:56;;;;;;;3.17;1.48;;;21.50;57.80;;;;;;4967501;28;20483;-81
2022/07/10 10:49:24;;;;;;;2.58;1.00;;;21.70;56.20;;;;;;4967587;28;20077;-80
2022/07/10 10:52:03;;;;;;;2.28;1.20;;;22.00;55.20;;;;;;4984622;28;20034;-80
2022/07/10 10:55:08;;;;;;;2.67;1.13;;;22.10;55.30;;;;;;4981916;28;20082;-79
2022/07/10 10:57:39;;;;;;;2.42;1.40;;;22.00;56.10;;;;;;4943321;29;20035;-80
2022/07/10 11:00:07;;;;;;;4.75;1.20;;;21.40;57.30;;;;;;4927680;29;20079;-82
2022/07/10 11:02:37;;;;;;;2.13;1.00;;;21.00;58.00;;;;;;4949535;28;20440;-80
2022/07/10 11:05:17;;;;;;;2.22;1.17;;;20.80;58.60;;;;;;4986097;28;20046;-79
2022/07/10 11:07:58;;;;;;;2.28;1.27;;;21.30;57.70;;;;;;4967489;28;20030;-80
2022/07/10 11:10:30;;;;;;;3.33;1.13;;;22.00;55.00;;;;;;4966058;28;20046;-79
2022/07/10 11:13:00;;;;;;;2.75;1.42;;;22.50;53.80;;;;;;4984175;28;20192;-80
2022/07/10 11:15:32;;;;;;;3.28;1.30;;;22.80;52.70;;;;;;4985526;28;20022;-81
2022/07/10 11:18:08;;;;;;;;;;;22.60;53.60;;;;;;4985708;28;20086;-80
2022/07/10 11:20:36;;;;;;;1.20;1.00;;;22.60;53.50;;;;;;4986756;28;19956;-80
2022/07/10 11:23:40;;;;;;;4.85;1.38;;;22.30;54.40;;;;;;4975997;28;20130;-81
2022/07/10 11:26:08;;;;;;;2.13;1.55;;;22.00;55.00;;;;;;4948674;29;20050;-81
2022/07/10 11:28:59;;;;;;;2.53;1.10;;;21.90;55.80;;;;;;4946638;29;20027;-81
2022/07/10 11:31:27;;;;;;;3.13;1.40;;;21.80;54.30;;;;;;4943045;29;20043;-81
2022/07/10 11:33:55;;;;;;;2.88;1.05;;;21.70;56.60;;;;;;4968598;28;20087;-81
2022/07/10 11:36:28;;;;;;;3.30;1.25;;;21.90;54.90;;;;;;4967289;28;20514;-80
2022/07/10 11:39:20;;;;;;;1.95;0.85;;;22.00;54.50;;;;;;4985772;28;20061;-81
2022/07/10 11:41:46;;;;;;;;;;;22.00;54.00;;;;;;4985684;28;20039;-81
2022/07/10 11:44:16;;;;;;;1.67;0.95;;;22.10;53.40;;;;;;4991574;28;19906;-84
2022/07/10 11:46:44;;;;;;;4.00;1.20;;;22.40;53.90;;;;;;4977214;28;20027;-80
2022/07/10 11:49:11;;;;;;;0.98;0.82;;;22.50;55.00;;;;;;4997113;28;20026;-80
2022/07/10 11:51:39;;;;;;;2.08;1.17;;;22.50;54.30;;;;;;4996418;28;20037;-81
2022/07/10 11:54:10;;;;;;;4.43;1.10;;;22.40;55.20;;;;;;4992797;28;20077;-82
2022/07/10 11:56:39;;;;;;;1.23;0.93;;;22.20;55.20;;;;;;4993336;28;20027;-80
2022/07/10 11:59:12;;;;;;;6.35;1.45;;;22.60;54.30;;;;;;4994079;28;20019;-79
2022/07/10 12:01:49;;;;;;;2.03;1.10;;;22.90;53.40;;;;;;4997326;28;20019;-80
2022/07/10 12:04:17;;;;;;;2.97;1.15;;;23.10;52.30;;;;;;4986261;28;20027;-83
2022/07/10 12:06:45;;;;;;;3.55;1.30;;;23.30;51.70;;;;;;4967430;28;20365;-83
2022/07/10 12:09:16;;;;;;;1.60;0.93;;;23.50;51.10;;;;;;4987622;28;20023;-83
2022/07/10 12:11:44;;;;;;;1.92;1.15;;;23.30;51.20;;;;;;4984425;28;20022;-83
2022/07/10 12:14:17;;;;;;;3.10;0.80;;;23.20;51.60;;;;;;4984080;28;20027;-83
2022/07/10 12:16:43;;;;;;;2.75;1.00;;;22.90;52.00;;;;;;4985740;28;20019;-81
2022/07/10 12:19:12;;;;;;;1.60;1.08;;;23.00;51.70;;;;;;4964554;28;20035;-81
2022/07/10 12:21:39;;;;;;;5.50;1.17;;;22.90;52.40;;;;;;4982187;28;20117;-83
2022/07/10 12:24:05;;;;;;;2.50;1.10;;;22.60;53.40;;;;;;4982963;28;20018;-82
2022/07/10 12:26:36;;;;;;;2.00;1.27;;;22.60;53.20;;;;;;4964751;28;20177;-82
2022/07/10 12:29:04;;;;;;;2.42;1.35;;;22.90;53.20;;;;;;4982368;28;20034;-82
2022/07/10 12:31:32;;;;;;;2.38;0.85;;;23.10;51.80;;;;;;5016679;23;20041;-81
2022/07/10 12:34:03;;;;;;;1.65;1.40;;;23.10;52.10;;;;;;5013541;28;20359;-80
2022/07/10 12:36:48;;;;;;;2.33;1.20;;;23.40;51.20;;;;;;5020243;28;20022;-79
2022/07/10 12:39:16;;;;;;;1.33;1.08;;;23.40;50.60;;;;;;5001188;28;20050;-81
2022/07/10 12:41:56;;;;;;;2.15;0.90;;;23.30;50.80;;;;;;4982409;28;20426;-81
2022/07/10 12:44:43;;;;;;;1.98;1.23;;;23.20;50.80;;;;;;4998845;28;20443;-81
2022/07/10 12:47:15;;;;;;;4.10;1.25;;;23.10;50.90;;;;;;5007045;28;20029;-79
2022/07/10 12:49:51;;;;;;;;;;;23.40;51.20;;;;;;4988282;28;20092;-81
2022/07/10 12:52:28;;;;;;;1.60;0.95;;;23.50;50.70;;;;;;5020147;28;19925;-80
2022/07/10 12:55:06;;;;;;;3.83;1.15;;;23.40;50.10;;;;;;5013316;28;20160;-82
2022/07/10 12:57:32;;;;;;;4.00;1.25;;;23.10;50.70;;;;;;5023238;28;20014;-81
2022/07/10 13:00:06;;;;;;;2.63;1.10;;;23.00;51.40;;;;;;5027353;28;20033;-83
2022/07/10 13:02:32;;;;;;;3.45;1.05;;;23.10;50.00;;;;;;5020083;28;20025;-84
2022/07/10 13:04:58;;;;;;;2.40;0.82;;;23.30;50.70;;;;;;5025820;28;20088;-84